Time;durP1;ratioP1;P1;durP2;ratioP2;P2;SDS_P1;SDS_P2;PMS_P1;PMS_P2;Temp;Humidity;BMP_temperature;BMP_pressure;BME280_temperature;BME280_humidity;BME280_pressure;Samples;Min_cycle;Max_cycle;Signal;HPM_P1;HPM_P2
2022/04/05 00:01:33;;;;;;;0.20;0.10;;;8.20;99.90;;;;;;25366212;23;20222;-77
2022/04/05 00:11:38;;;;;;;0.30;0.30;;;8.30;99.90;;;;;;25391372;23;20168;-62
2022/04/05 00:21:43;;;;;;;0.47;0.40;;;8.30;99.90;;;;;;25366191;23;20202;-63
2022/04/05 00:31:48;;;;;;;0.20;0.10;;;8.20;99.90;;;;;;25372228;23;20191;-61
2022/04/05 00:41:52;;;;;;;0.20;0.10;;;8.10;99.90;;;;;;25399656;23;20203;-63
2022/04/05 00:51:59;;;;;;;0.20;0.07;;;8.10;99.90;;;;;;25398398;23;20196;-61
2022/04/05 01:02:03;;;;;;;0.20;0.20;;;8.00;99.90;;;;;;25396721;23;20207;-61
2022/04/05 01:12:10;;;;;;;0.30;0.30;;;7.90;99.90;;;;;;25371594;23;20278;-62
2022/04/05 01:22:14;;;;;;;0.20;0.10;;;8.00;99.90;;;;;;25396104;23;20206;-62
2022/04/05 01:32:20;;;;;;;0.50;0.40;;;7.80;99.90;;;;;;25397502;23;20456;-62
2022/04/05 01:42:24;;;;;;;0.57;0.57;;;7.80;99.90;;;;;;25396060;23;20219;-62
2022/04/05 01:52:29;;;;;;;0.20;0.10;;;7.90;99.90;;;;;;25410849;23;20215;-61
2022/04/05 02:02:33;;;;;;;0.20;0.10;;;8.10;99.90;;;;;;25401831;23;20187;-79
2022/04/05 02:12:39;;;;;;;0.20;0.10;;;8.10;99.90;;;;;;25401783;23;20218;-78
2022/04/05 02:22:42;;;;;;;0.20;0.00;;;7.90;99.90;;;;;;25395636;23;20187;-76
2022/04/05 02:32:48;;;;;;;0.20;0.10;;;7.70;99.90;;;;;;25392600;23;20176;-78
2022/04/05 02:42:52;;;;;;;0.20;0.00;;;7.90;99.90;;;;;;25417364;23;20443;-76
2022/04/05 02:52:57;;;;;;;0.20;0.00;;;7.90;99.90;;;;;;25392670;23;20191;-76
2022/04/05 03:03:01;;;;;;;0.20;0.00;;;8.00;99.90;;;;;;25393712;23;20187;-76
2022/04/05 03:13:07;;;;;;;0.20;0.00;;;7.90;99.90;;;;;;25366193;23;20536;-66
2022/04/05 03:23:10;;;;;;;0.20;0.00;;;7.90;99.90;;;;;;25392409;23;20187;-67
2022/04/05 03:33:16;;;;;;;0.20;0.00;;;7.50;99.90;;;;;;25393767;23;20178;-67
2022/04/05 03:43:20;;;;;;;0.20;0.00;;;7.70;99.90;;;;;;25367645;23;20274;-66
2022/04/05 03:53:26;;;;;;;0.73;0.73;;;7.70;99.90;;;;;;25364554;23;20182;-67
2022/04/05 04:03:30;;;;;;;0.20;0.00;;;7.70;99.90;;;;;;25397581;23;20254;-67
2022/04/05 04:13:35;;;;;;;0.20;0.00;;;7.60;99.90;;;;;;25398277;23;20218;-67
2022/04/05 04:23:39;;;;;;;0.20;0.00;;;7.60;99.90;;;;;;25400040;23;20218;-78
2022/04/05 04:33:45;;;;;;;0.20;0.00;;;7.70;99.90;;;;;;25396957;23;20172;-75
2022/04/05 04:43:49;;;;;;;0.20;0.00;;;7.70;99.90;;;;;;25397113;23;20227;-76
2022/04/05 04:53:54;;;;;;;0.20;0.10;;;7.80;99.90;;;;;;25397371;23;20199;-77
2022/04/05 05:03:58;;;;;;;0.20;0.10;;;7.90;99.90;;;;;;25396993;23;20340;-62
2022/04/05 05:14:03;;;;;;;0.20;0.10;;;8.10;99.90;;;;;;25395814;23;20733;-62
2022/04/05 05:24:07;;;;;;;0.20;0.00;;;7.80;99.90;;;;;;25393324;23;20207;-76
2022/04/05 05:34:18;;;;;;;0.20;0.00;;;7.70;99.90;;;;;;25370708;23;20171;-76
2022/04/05 05:44:23;;;;;;;0.20;0.17;;;7.60;99.90;;;;;;25392169;23;20233;-73
2022/04/05 05:54:28;;;;;;;0.20;0.00;;;7.70;99.90;;;;;;25388998;23;20274;-76
2022/04/05 06:04:32;;;;;;;0.20;0.00;;;7.90;99.90;;;;;;25384387;23;20207;-75
2022/04/05 06:14:38;;;;;;;0.67;0.60;;;8.30;99.90;;;;;;25384787;23;20191;-77
2022/04/05 06:24:42;;;;;;;0.20;0.00;;;8.40;99.90;;;;;;25362493;23;20498;-73
2022/04/05 06:34:47;;;;;;;0.20;0.00;;;8.70;99.90;;;;;;25385609;23;20251;-76
2022/04/05 06:44:51;;;;;;;0.20;0.10;;;9.00;99.90;;;;;;25391090;23;20420;-76
2022/04/05 06:54:56;;;;;;;1.27;1.17;;;9.10;99.90;;;;;;25361192;23;20191;-68
2022/04/05 07:05:00;;;;;;;0.20;0.10;;;9.20;99.90;;;;;;25384681;23;20278;-68
2022/04/05 07:15:07;;;;;;;0.20;0.10;;;9.40;99.90;;;;;;25384630;23;20266;-69
2022/04/05 07:25:11;;;;;;;0.20;0.10;;;9.70;99.90;;;;;;25383968;23;20274;-68
2022/04/05 07:35:17;;;;;;;0.40;0.40;;;9.80;99.90;;;;;;25389672;23;20175;-65
2022/04/05 07:45:21;;;;;;;0.20;0.10;;;10.10;99.90;;;;;;25368846;23;20199;-64
2022/04/05 07:55:27;;;;;;;0.20;0.10;;;10.30;99.90;;;;;;25396174;23;20179;-65
2022/04/05 08:05:30;;;;;;;0.20;0.10;;;10.80;99.90;;;;;;25368074;23;20263;-63
2022/04/05 08:15:36;;;;;;;0.53;0.53;;;11.50;99.90;;;;;;25395145;23;20283;-63
2022/04/05 08:25:39;;;;;;;0.20;0.10;;;12.00;99.90;;;;;;25366507;23;20258;-63
2022/04/05 08:35:45;;;;;;;0.20;0.10;;;12.20;99.90;;;;;;25393611;23;20235;-63
2022/04/05 08:45:58;;;;;;;0.23;0.17;;;12.50;99.90;;;;;;25363874;23;20275;-66
2022/04/05 08:56:04;;;;;;;0.20;0.10;;;12.90;99.90;;;;;;25389955;23;20172;-66
2022/04/05 09:06:26;;;;;;;0.20;0.00;;;13.20;99.90;;;;;;25366735;23;20222;-83
2022/04/05 09:16:34;;;;;;;0.20;0.10;;;12.40;99.90;;;;;;25393917;23;20484;-71
2022/04/05 09:26:45;;;;;;;0.20;0.10;;;12.60;99.90;;;;;;25387854;23;20179;-70
2022/04/05 09:36:51;;;;;;;0.20;0.10;;;13.10;99.90;;;;;;25361957;23;20604;-70
2022/04/05 09:47:06;;;;;;;0.20;0.10;;;12.90;99.90;;;;;;25390319;23;20214;-70
2022/04/05 09:57:12;;;;;;;0.20;0.10;;;12.60;99.90;;;;;;25387639;23;20247;-64
2022/04/05 10:07:16;;;;;;;0.20;0.10;;;13.20;99.90;;;;;;25391505;23;20191;-64
2022/04/05 10:17:24;;;;;;;0.20;0.10;;;13.60;99.90;;;;;;25391816;23;20251;-64
2022/04/05 10:27:28;;;;;;;0.20;0.10;;;13.90;99.90;;;;;;25388794;23;20187;-64
2022/04/05 10:37:35;;;;;;;0.30;0.30;;;14.70;99.90;;;;;;25363697;23;20197;-64
2022/04/05 10:48:20;;;;;;;0.20;0.10;;;15.40;99.90;;;;;;25391882;23;20250;-66
2022/04/05 10:58:29;;;;;;;0.20;0.10;;;15.80;99.90;;;;;;25371347;23;20187;-64
2022/04/05 11:08:34;;;;;;;0.20;0.10;;;16.70;99.90;;;;;;25396880;23;20202;-64
2022/04/05 11:18:40;;;;;;;0.20;0.20;;;17.50;99.90;;;;;;25367988;23;20183;-65
2022/04/05 11:28:47;;;;;;;0.20;0.10;;;17.80;99.90;;;;;;25396823;23;20183;-65
2022/04/05 11:38:53;;;;;;;0.20;0.10;;;17.70;99.90;;;;;;25395917;23;20174;-65
2022/04/05 11:49:01;;;;;;;0.20;0.10;;;16.60;99.90;;;;;;25396229;23;20262;-64
2022/04/05 11:59:08;;;;;;;0.40;0.40;;;17.90;99.90;;;;;;25398339;23;20163;-65
2022/04/05 12:09:13;;;;;;;0.20;0.00;;;18.40;99.90;;;;;;25394203;23;20300;-64
2022/04/05 12:19:22;;;;;;;0.20;0.10;;;19.30;99.90;;;;;;25396331;23;20194;-64
2022/04/05 12:29:26;;;;;;;0.20;0.10;;;19.40;99.90;;;;;;25395131;23;20260;-66
2022/04/05 12:39:33;;;;;;;12.87;11.67;;;20.20;99.90;;;;;;25367080;23;20227;-67
2022/04/05 12:49:38;;;;;;;0.20;0.00;;;20.40;99.90;;;;;;25376462;23;20207;-67
2022/04/05 12:59:43;;;;;;;0.20;0.00;;;20.80;99.90;;;;;;25400530;23;20164;-71
2022/04/05 13:09:47;;;;;;;0.20;0.10;;;21.30;99.90;;;;;;25374891;23;20191;-74
2022/04/05 13:19:56;;;;;;;0.40;0.30;;;20.20;99.90;;;;;;25398483;23;20286;-62
2022/04/05 13:30:09;;;;;;;0.20;0.07;;;20.20;99.90;;;;;;25397392;23;20183;-63
2022/04/05 13:40:14;;;;;;;0.73;0.37;;;20.30;99.90;;;;;;25397652;23;20167;-62
2022/04/05 13:50:20;;;;;;;0.20;0.10;;;20.90;99.90;;;;;;25367371;23;20206;-63
2022/04/05 14:00:25;;;;;;;0.20;0.10;;;21.10;99.90;;;;;;25395880;23;20166;-64
2022/04/05 14:10:29;;;;;;;0.20;0.10;;;20.70;99.90;;;;;;25392718;23;20187;-62
2022/04/05 14:20:54;;;;;;;0.20;0.10;;;23.00;99.90;;;;;;25390764;23;20191;-64
2022/04/05 14:30:58;;;;;;;0.20;0.10;;;23.50;99.90;;;;;;25391266;23;20195;-64
2022/04/05 14:41:04;;;;;;;0.20;0.00;;;23.00;99.90;;;;;;25390338;23;20167;-64
2022/04/05 14:51:10;;;;;;;0.20;0.10;;;22.20;99.90;;;;;;25362361;23;20226;-64
2022/04/05 15:01:16;;;;;;;0.20;0.00;;;21.40;99.90;;;;;;25367629;23;20179;-63
2022/04/05 15:11:20;;;;;;;2.60;2.40;;;22.10;99.90;;;;;;25387712;23;20202;-62
2022/04/05 15:21:25;;;;;;;0.20;0.10;;;22.60;99.90;;;;;;25387458;23;20214;-63
2022/04/05 15:31:29;;;;;;;0.20;0.00;;;22.90;99.90;;;;;;25384051;23;20203;-63
2022/04/05 15:41:34;;;;;;;0.20;0.00;;;23.00;99.90;;;;;;25380756;23;20159;-63
2022/04/05 15:51:38;;;;;;;0.20;0.10;;;21.40;99.90;;;;;;25382596;23;20311;-63
2022/04/05 16:01:43;;;;;;;0.20;0.10;;;20.10;99.90;;;;;;25393455;23;20235;-64
2022/04/05 16:11:47;;;;;;;0.20;0.00;;;19.70;99.90;;;;;;25387506;23;20195;-63
2022/04/05 16:21:52;;;;;;;0.20;0.10;;;18.90;99.90;;;;;;25389874;23;20179;-63
2022/04/05 16:31:56;;;;;;;0.20;0.00;;;18.00;99.90;;;;;;25363165;23;20580;-63
2022/04/05 16:42:02;;;;;;;0.20;0.00;;;17.20;99.90;;;;;;25387204;23;20473;-63
2022/04/05 16:52:06;;;;;;;0.20;0.10;;;16.70;99.90;;;;;;25476261;23;20336;-63
2022/04/05 17:02:11;;;;;;;0.20;0.03;;;16.40;99.90;;;;;;25518195;23;20273;-62
2022/04/05 17:12:15;;;;;;;0.20;0.10;;;16.00;99.90;;;;;;25521903;23;20198;-63
2022/04/05 17:22:22;;;;;;;0.20;0.00;;;15.80;99.90;;;;;;25522768;23;20242;-64
2022/04/05 17:32:26;;;;;;;0.50;0.50;;;15.60;99.90;;;;;;25501124;23;20635;-64
2022/04/05 17:42:32;;;;;;;0.20;0.10;;;15.20;99.90;;;;;;25524232;23;20247;-63
2022/04/05 17:52:35;;;;;;;0.20;0.07;;;14.80;99.90;;;;;;25402801;23;20294;-63
2022/04/05 18:02:44;;;;;;;0.20;0.00;;;14.50;99.90;;;;;;25402903;23;20218;-62
2022/04/05 18:12:48;;;;;;;0.20;0.10;;;14.20;99.90;;;;;;25398945;23;20221;-63
2022/04/05 18:22:54;;;;;;;0.20;0.10;;;14.00;99.90;;;;;;25400277;23;20168;-63
2022/04/05 18:32:57;;;;;;;0.20;0.10;;;13.80;99.90;;;;;;25399926;23;20244;-62
2022/04/05 18:43:03;;;;;;;0.20;0.10;;;13.70;99.90;;;;;;25401669;23;20262;-62
2022/04/05 18:53:06;;;;;;;0.20;0.10;;;13.20;99.90;;;;;;25397202;23;20263;-62
2022/04/05 19:03:11;;;;;;;0.20;0.10;;;13.20;99.90;;;;;;25400057;23;20282;-63
2022/04/05 19:13:16;;;;;;;0.20;0.10;;;12.80;99.90;;;;;;25400944;23;20187;-63
2022/04/05 19:23:22;;;;;;;0.20;0.10;;;12.10;99.90;;;;;;25402840;23;20450;-64
2022/04/05 19:33:27;;;;;;;0.20;0.10;;;11.80;99.90;;;;;;25405409;23;20175;-64
2022/04/05 19:43:31;;;;;;;0.20;0.10;;;11.60;99.90;;;;;;25410786;23;20267;-64
2022/04/05 19:53:36;;;;;;;0.20;0.10;;;11.30;99.90;;;;;;25412098;23;20227;-64
2022/04/05 20:03:41;;;;;;;0.20;0.10;;;11.20;99.90;;;;;;25409251;23;20207;-64
2022/04/05 20:13:45;;;;;;;0.20;0.10;;;11.00;99.90;;;;;;25409190;23;20188;-65
2022/04/05 20:23:54;;;;;;;0.20;0.00;;;10.70;99.90;;;;;;25380830;23;20191;-62
2022/04/05 20:33:58;;;;;;;0.20;0.10;;;10.70;99.90;;;;;;25410262;23;20320;-63
2022/04/05 20:44:04;;;;;;;0.20;0.07;;;10.70;99.90;;;;;;25412445;23;20199;-63
2022/04/05 20:54:08;;;;;;;0.20;0.10;;;10.80;99.90;;;;;;25416051;23;20160;-64
2022/04/05 21:04:13;;;;;;;0.20;0.10;;;10.70;99.90;;;;;;25388593;23;20187;-62
2022/04/05 21:14:17;;;;;;;0.20;0.10;;;10.70;99.90;;;;;;25412833;23;20198;-62
2022/04/05 21:24:22;;;;;;;0.20;0.10;;;10.70;99.90;;;;;;25387444;23;20187;-63
2022/04/05 21:34:26;;;;;;;0.20;0.20;;;10.60;99.90;;;;;;25415193;23;20156;-64
2022/04/05 21:44:31;;;;;;;0.20;0.10;;;10.70;99.90;;;;;;25387280;23;20222;-63
2022/04/05 21:54:35;;;;;;;0.20;0.10;;;10.20;99.90;;;;;;25413067;23;20167;-61
2022/04/05 22:04:40;;;;;;;0.20;0.10;;;10.40;99.90;;;;;;25413334;23;20196;-62
2022/04/05 22:14:44;;;;;;;0.20;0.10;;;10.60;99.90;;;;;;25389353;23;20198;-64
2022/04/05 22:24:50;;;;;;;0.20;0.10;;;10.70;99.90;;;;;;25414744;23;20203;-64
2022/04/05 22:34:53;;;;;;;0.20;0.10;;;10.70;99.90;;;;;;25414088;23;20174;-63
2022/04/05 22:44:58;;;;;;;0.20;0.10;;;10.90;99.90;;;;;;25389777;23;20203;-61
2022/04/05 22:55:03;;;;;;;0.20;0.00;;;11.10;99.90;;;;;;25413598;23;20172;-62
2022/04/05 23:05:09;;;;;;;0.20;0.10;;;11.20;99.90;;;;;;25413632;23;20236;-63
2022/04/05 23:15:13;;;;;;;0.20;0.10;;;11.30;99.90;;;;;;25412570;23;20191;-63
2022/04/05 23:25:18;;;;;;;0.20;0.10;;;11.30;99.90;;;;;;25414308;23;20191;-62
2022/04/05 23:35:22;;;;;;;0.20;0.10;;;11.30;99.90;;;;;;25412245;23;20171;-63
2022/04/05 23:45:27;;;;;;;0.20;0.10;;;11.20;99.90;;;;;;25413589;23;20651;-63
2022/04/05 23:55:30;;;;;;;0.20;0.03;;;11.00;99.90;;;;;;25412056;23;20176;-63
